createdAt,value
2018-08-20T00:01:35.539Z,100510.42
2018-08-20T00:04:05.828Z,100509.59
2018-08-20T00:06:47.579Z,100504.87
2018-08-20T00:09:16.123Z,100504.53
2018-08-20T00:11:45.411Z,100499.36
2018-08-20T00:14:13.919Z,100507.34
2018-08-20T00:16:43.489Z,100495.04
2018-08-20T00:19:13.780Z,100497.63
2018-08-20T00:21:44.027Z,100495.13
2018-08-20T00:24:12.439Z,100500.02
2018-08-20T00:26:40.975Z,100498.20
2018-08-20T00:29:09.590Z,100497.73
2018-08-20T00:31:38.011Z,100491.85
2018-08-20T00:34:06.554Z,100494.94
2018-08-20T00:36:35.099Z,100496.85
2018-08-20T00:39:03.836Z,100495.27
2018-08-20T00:41:32.370Z,100494.85
2018-08-20T00:44:00.859Z,100493.91
2018-08-20T00:46:29.315Z,100499.42
2018-08-20T00:48:57.752Z,100496.89
2018-08-20T00:51:26.424Z,100497.39
2018-08-20T00:53:54.852Z,100501.02
2018-08-20T00:56:23.251Z,100500.81
2018-08-20T00:58:51.883Z,100507.98
2018-08-20T01:01:20.288Z,100511.66
2018-08-20T01:03:48.715Z,100510.15
2018-08-20T01:06:17.372Z,100510.09
2018-08-20T01:08:45.821Z,100510.98
2018-08-20T01:11:14.295Z,100508.30
2018-08-20T01:13:42.827Z,100505.55
2018-08-20T01:16:11.276Z,100506.18
2018-08-20T01:18:39.783Z,100502.30
2018-08-20T01:21:08.417Z,100498.13
2018-08-20T01:23:36.843Z,100497.82
2018-08-20T01:26:05.247Z,100503.69
2018-08-20T01:28:33.686Z,100501.31
2018-08-20T01:31:02.179Z,100495.57
2018-08-20T01:33:30.627Z,100497.59
2018-08-20T01:35:59.124Z,100496.24
2018-08-20T01:38:27.787Z,100497.06
2018-08-20T01:40:56.316Z,100500.11
2018-08-20T01:43:24.923Z,100497.73
2018-08-20T01:45:53.400Z,100496.77
2018-08-20T01:48:21.823Z,100500.53
2018-08-20T01:50:50.395Z,100494.17
2018-08-20T01:53:19.007Z,100494.09
2018-08-20T01:55:47.482Z,100493.88
2018-08-20T01:58:16.139Z,100492.00
2018-08-20T02:00:44.807Z,100491.27
2018-08-20T02:03:13.291Z,100494.83
2018-08-20T02:05:41.928Z,100494.99
2018-08-20T02:08:10.423Z,100493.65
2018-08-20T02:10:38.935Z,100492.61
2018-08-20T02:13:07.415Z,100494.37
2018-08-20T02:15:35.891Z,100487.60
2018-08-20T02:18:04.383Z,100491.22
2018-08-20T02:20:32.990Z,100490.04
2018-08-20T02:23:01.460Z,100492.47
2018-08-20T02:25:29.954Z,100489.56
2018-08-20T02:27:58.591Z,100485.92
2018-08-20T02:30:27.091Z,100487.66
2018-08-20T02:32:55.517Z,100490.38
2018-08-20T02:35:24.115Z,100495.16
2018-08-20T02:37:52.584Z,100480.49
2018-08-20T02:40:21.158Z,100483.09
2018-08-20T02:42:49.847Z,100484.20
2018-08-20T02:45:19.245Z,100480.20
2018-08-20T02:47:47.911Z,100475.73
2018-08-20T02:50:16.851Z,100475.81
2018-08-20T02:52:45.940Z,100476.66
2018-08-20T02:55:14.615Z,100473.34
2018-08-20T02:57:43.047Z,100473.41
2018-08-20T03:00:13.668Z,100471.02
2018-08-20T03:02:42.155Z,100461.11
2018-08-20T03:05:12.123Z,100461.17
2018-08-20T03:07:40.575Z,100459.62
2018-08-20T03:10:11.376Z,100463.14
2018-08-20T03:12:40.039Z,100457.43
2018-08-20T03:15:09.543Z,100460.22
2018-08-20T03:17:38.244Z,100457.95
2018-08-20T03:20:07.248Z,100456.13
2018-08-20T03:22:35.718Z,100456.98
2018-08-20T03:25:05.103Z,100460.06
2018-08-20T03:27:33.547Z,100460.77
2018-08-20T03:30:02.040Z,100462.20
2018-08-20T03:32:30.813Z,100464.87
2018-08-20T03:34:59.306Z,100467.63
2018-08-20T03:37:27.991Z,100465.16
2018-08-20T03:39:56.411Z,100465.62
2018-08-20T03:42:24.942Z,100464.56
2018-08-20T03:44:53.515Z,100463.93
2018-08-20T03:47:22.472Z,100462.34
2018-08-20T03:49:51.529Z,100468.61
2018-08-20T03:52:20.023Z,100464.31
2018-08-20T03:54:48.503Z,100460.84
2018-08-20T03:57:17.009Z,100465.90
2018-08-20T03:59:45.451Z,100457.53
2018-08-20T04:02:14.039Z,100461.88
2018-08-20T04:04:42.491Z,100473.39
2018-08-20T04:07:11.002Z,100470.05
2018-08-20T04:09:39.646Z,100467.84
2018-08-20T04:12:08.108Z,100462.59
2018-08-20T04:14:36.534Z,100468.14
2018-08-20T04:17:05.166Z,100466.69
2018-08-20T04:19:33.611Z,100467.08
2018-08-20T04:22:02.067Z,100468.52
2018-08-20T04:24:30.748Z,100469.84
2018-08-20T04:26:59.279Z,100464.89
2018-08-20T04:29:27.714Z,100467.63
2018-08-20T04:31:56.276Z,100462.75
2018-08-20T04:34:24.711Z,100464.58
2018-08-20T04:36:53.235Z,100468.89
2018-08-20T04:39:21.703Z,100466.39
2018-08-20T04:41:50.116Z,100464.61
2018-08-20T04:44:18.579Z,100471.11
2018-08-20T04:46:47.095Z,100471.50
2018-08-20T04:49:15.495Z,100465.47
2018-08-20T04:51:43.975Z,100465.45
2018-08-20T04:54:12.679Z,100468.92
2018-08-20T04:56:41.142Z,100465.70
2018-08-20T04:59:09.970Z,100473.61
2018-08-20T05:01:38.465Z,100480.56
2018-08-20T05:04:07.383Z,100486.48
2018-08-20T05:06:35.857Z,100491.08
2018-08-20T05:09:05.840Z,100493.06
2018-08-20T05:11:34.317Z,100505.14
2018-08-20T05:14:02.804Z,100502.69
2018-08-20T05:16:31.326Z,100498.88
2018-08-20T05:18:59.806Z,100500.03
2018-08-20T05:21:28.228Z,100501.14
2018-08-20T05:23:57.063Z,100514.95
2018-08-20T05:26:25.564Z,100516.90
2018-08-20T05:28:54.039Z,100522.98
2018-08-20T05:31:22.543Z,100519.46
2018-08-20T05:33:50.999Z,100516.23
2018-08-20T05:36:19.419Z,100522.81
2018-08-20T05:38:47.925Z,100519.18
2018-08-20T05:41:16.399Z,100523.41
2018-08-20T05:43:44.804Z,100517.34
2018-08-20T05:46:13.461Z,100523.78
2018-08-20T05:48:41.916Z,100526.71
2018-08-20T05:51:10.351Z,100530.44
2018-08-20T05:53:38.803Z,100533.41
2018-08-20T05:56:07.210Z,100540.85
2018-08-20T05:58:35.751Z,100537.77
2018-08-20T06:01:04.419Z,100538.70
2018-08-20T06:03:32.857Z,100538.34
2018-08-20T06:06:01.320Z,100547.64
2018-08-20T06:08:29.858Z,100547.50
2018-08-20T06:10:58.331Z,100556.86
2018-08-20T06:13:26.795Z,100553.67
2018-08-20T06:15:55.587Z,100549.05
2018-08-20T06:18:24.028Z,100553.70
2018-08-20T06:20:52.626Z,100555.06
2018-08-20T06:23:21.152Z,100555.77
2018-08-20T06:25:49.583Z,100561.17
2018-08-20T06:28:18.183Z,100569.08
2018-08-20T06:30:46.600Z,100570.02
2018-08-20T06:33:15.077Z,100577.47
2018-08-20T06:35:43.533Z,100578.73
2018-08-20T06:38:12.008Z,100585.48
2018-08-20T06:40:40.539Z,100582.90
2018-08-20T06:43:09.047Z,100590.56
2018-08-20T06:45:37.580Z,100596.56
2018-08-20T06:48:06.398Z,100593.91
2018-08-20T06:50:34.886Z,100591.55
2018-08-20T06:53:03.303Z,100592.23
2018-08-20T06:55:31.855Z,100585.66
2018-08-20T06:58:02.192Z,100590.98
2018-08-20T07:00:31.747Z,100579.75
2018-08-20T07:03:00.249Z,100582.54
2018-08-20T07:05:28.834Z,100581.40
2018-08-20T07:07:57.352Z,100579.47
2018-08-20T07:10:26.986Z,100581.41
2018-08-20T07:12:55.532Z,100579.92
2018-08-20T07:15:24.145Z,100581.72
2018-08-20T07:17:52.664Z,100592.81
2018-08-20T07:20:21.227Z,100591.28
2018-08-20T07:22:49.729Z,100599.34
2018-08-20T07:25:18.169Z,100597.41
2018-08-20T07:27:46.696Z,100598.69
2018-08-20T07:30:15.150Z,100599.04
2018-08-20T07:32:43.584Z,100602.49
2018-08-20T07:35:12.121Z,100605.83
2018-08-20T07:37:40.684Z,100604.81
2018-08-20T07:40:09.360Z,100606.31
2018-08-20T07:42:37.951Z,100608.79
2018-08-20T07:45:06.587Z,100594.31
2018-08-20T07:47:35.111Z,100597.31
2018-08-20T07:50:03.667Z,100598.79
2018-08-20T07:52:32.378Z,100596.66
2018-08-20T07:55:00.807Z,100598.67
2018-08-20T07:57:29.225Z,100600.88
2018-08-20T07:59:57.678Z,100595.82
2018-08-20T08:02:26.196Z,100599.08
2018-08-20T08:04:54.635Z,100599.45
2018-08-20T08:07:23.238Z,100596.09
2018-08-20T08:09:51.715Z,100600.55
2018-08-20T08:12:20.165Z,100593.28
2018-08-20T08:14:48.695Z,100590.70
2018-08-20T08:17:17.159Z,100591.16
2018-08-20T08:19:45.620Z,100587.59
2018-08-20T08:22:14.400Z,100596.00
2018-08-20T08:24:42.896Z,100597.86
2018-08-20T08:27:11.321Z,100597.98
2018-08-20T08:29:40.143Z,100592.66
2018-08-20T08:32:08.655Z,100587.98
2018-08-20T08:34:37.128Z,100593.57
2018-08-20T08:37:06.032Z,100600.22
2018-08-20T08:39:34.507Z,100593.29
2018-08-20T08:42:03.148Z,100594.06
2018-08-20T08:44:31.719Z,100600.85
2018-08-20T08:47:00.212Z,100597.32
2018-08-20T08:49:28.722Z,100601.98
2018-08-20T08:51:57.348Z,100603.72
2018-08-20T08:54:25.891Z,100602.05
2018-08-20T08:56:54.347Z,100599.21
2018-08-20T08:59:23.244Z,100599.31
2018-08-20T09:01:51.791Z,100599.36
2018-08-20T09:04:20.271Z,100595.29
2018-08-20T09:06:48.872Z,100596.27
2018-08-20T09:09:17.332Z,100599.95
2018-08-20T09:11:45.843Z,100589.78
2018-08-20T09:14:14.512Z,100589.61
2018-08-20T09:16:43.171Z,100582.44
2018-08-20T09:19:11.643Z,100586.83
2018-08-20T09:21:40.169Z,100587.02
2018-08-20T09:24:09.316Z,100579.05
2018-08-20T09:26:37.855Z,100575.79
2018-08-20T09:29:06.691Z,100579.33
2018-08-20T09:31:35.155Z,100574.06
2018-08-20T09:34:03.647Z,100573.16
2018-08-20T09:36:32.399Z,100577.59
2018-08-20T09:39:00.960Z,100577.80
2018-08-20T09:41:29.651Z,100573.98
2018-08-20T09:43:58.319Z,100576.46
2018-08-20T09:46:26.728Z,100567.62
2018-08-20T09:48:55.218Z,100566.76
2018-08-20T09:51:24.014Z,100571.02
2018-08-20T09:53:52.495Z,100558.67
2018-08-20T09:56:20.987Z,100562.17
2018-08-20T09:58:49.655Z,100569.59
2018-08-20T10:01:18.183Z,100564.43
2018-08-20T10:03:46.991Z,100565.62
2018-08-20T10:06:16.467Z,100564.73
2018-08-20T10:08:45.255Z,100565.83
2018-08-20T10:11:14.151Z,100577.18
2018-08-20T10:13:42.880Z,100570.92
2018-08-20T10:16:11.345Z,100569.65
2018-08-20T10:18:40.343Z,100571.28
2018-08-20T10:21:08.839Z,100565.52
2018-08-20T10:23:37.275Z,100564.62
2018-08-20T10:26:06.343Z,100561.45
2018-08-20T10:28:34.980Z,100562.20
2018-08-20T10:31:03.594Z,100559.34
2018-08-20T10:33:32.103Z,100555.22
2018-08-20T10:36:00.752Z,100559.66
2018-08-20T10:38:29.208Z,100560.08
2018-08-20T10:40:57.699Z,100565.83
2018-08-20T10:43:26.150Z,100554.30
2018-08-20T10:45:59.900Z,100555.83
2018-08-20T10:48:28.328Z,100555.13
2018-08-20T10:50:56.902Z,100553.42
2018-08-20T10:53:25.395Z,100554.27
2018-08-20T10:55:53.882Z,100559.88
2018-08-20T10:58:22.385Z,100552.45
2018-08-20T11:00:50.851Z,100554.73
2018-08-20T11:03:19.412Z,100555.22
2018-08-20T11:05:47.883Z,100554.53
2018-08-20T11:08:16.316Z,100552.24
2018-08-20T11:10:44.965Z,100558.70
2018-08-20T11:13:13.456Z,100555.33
2018-08-20T11:15:41.940Z,100556.05
2018-08-20T11:18:10.435Z,100549.73
2018-08-20T11:20:38.934Z,100545.61
2018-08-20T11:23:07.383Z,100548.27
2018-08-20T11:25:35.931Z,100547.24
2018-08-20T11:28:04.548Z,100540.49
2018-08-20T11:30:32.927Z,100548.98
2018-08-20T11:33:01.546Z,100540.31
2018-08-20T11:35:29.969Z,100535.50
2018-08-20T11:37:58.543Z,100527.31
2018-08-20T11:40:27.095Z,100529.00
2018-08-20T11:42:55.587Z,100526.68
2018-08-20T11:45:24.076Z,100527.28
2018-08-20T11:47:52.556Z,100522.41
2018-08-20T11:50:21.029Z,100518.95
2018-08-20T11:52:49.533Z,100516.64
2018-08-20T11:55:17.979Z,100511.81
2018-08-20T11:57:46.500Z,100504.69
2018-08-20T12:00:14.963Z,100506.22
2018-08-20T12:02:43.731Z,100507.21
2018-08-20T12:05:12.234Z,100502.61
2018-08-20T12:07:40.712Z,100511.08
2018-08-20T12:10:10.169Z,100504.41
2018-08-20T12:12:39.137Z,100504.94
2018-08-20T12:15:09.807Z,100508.95
2018-08-20T12:17:38.411Z,100511.98
2018-08-20T12:20:07.812Z,100502.66
2018-08-20T12:22:36.544Z,100511.52
2018-08-20T12:25:06.060Z,100509.66
2018-08-20T12:27:34.745Z,100512.87
2018-08-20T12:30:03.575Z,100502.05
2018-08-20T12:32:31.963Z,100501.36
2018-08-20T12:35:00.496Z,100508.48
2018-08-20T12:37:28.983Z,100504.47
2018-08-20T12:39:57.657Z,100499.44
2018-08-20T12:42:26.084Z,100496.29
2018-08-20T12:44:54.736Z,100499.83
2018-08-20T12:47:23.151Z,100498.70
2018-08-20T12:49:51.582Z,100496.08
2018-08-20T12:52:20.215Z,100491.87
2018-08-20T12:54:48.723Z,100496.28
2018-08-20T12:57:17.185Z,100489.03
2018-08-20T12:59:45.647Z,100499.25
2018-08-20T13:02:14.115Z,100492.48
2018-08-20T13:04:42.743Z,100496.45
2018-08-20T13:07:11.503Z,100493.53
2018-08-20T13:09:39.911Z,100495.57
2018-08-20T13:12:08.560Z,100492.20
2018-08-20T13:14:37.028Z,100489.13
2018-08-20T13:17:05.752Z,100486.12
2018-08-20T13:19:34.195Z,100489.05
2018-08-20T13:22:02.723Z,100494.44
2018-08-20T13:24:31.240Z,100486.64
2018-08-20T13:26:59.779Z,100487.94
2018-08-20T13:29:28.348Z,100483.53
2018-08-20T13:31:56.861Z,100482.55
2018-08-20T13:34:25.347Z,100483.70
2018-08-20T13:36:54.027Z,100475.33
2018-08-20T13:39:22.455Z,100482.45
2018-08-20T13:41:50.885Z,100475.77
2018-08-20T13:44:20.133Z,100480.13
2018-08-20T13:46:48.689Z,100487.31
2018-08-20T13:49:17.096Z,100480.15
2018-08-20T13:51:45.657Z,100481.17
2018-08-20T13:54:14.118Z,100485.22
2018-08-20T13:56:42.533Z,100478.08
2018-08-20T13:59:11.040Z,100476.95
2018-08-20T14:01:39.505Z,100480.13
2018-08-20T14:04:08.129Z,100477.58
2018-08-20T14:06:36.664Z,100478.98
2018-08-20T14:09:07.511Z,100475.14
2018-08-20T14:11:36.059Z,100474.98
2018-08-20T14:14:04.895Z,100477.58
2018-08-20T14:16:33.327Z,100478.01
2018-08-20T14:19:01.800Z,100477.13
2018-08-20T14:21:30.327Z,100472.45
2018-08-20T14:23:58.778Z,100469.97
2018-08-20T14:26:27.387Z,100462.47
2018-08-20T14:28:55.931Z,100454.81
2018-08-20T14:31:24.380Z,100469.06
2018-08-20T14:33:53.165Z,100462.57
2018-08-20T14:36:21.605Z,100460.37
2018-08-20T14:38:50.089Z,100461.05
2018-08-20T14:41:18.626Z,100468.00
2018-08-20T14:43:47.048Z,100465.45
2018-08-20T14:46:20.449Z,100462.33
2018-08-20T14:48:49.389Z,100463.09
2018-08-20T14:51:17.988Z,100458.30
2018-08-20T14:53:46.572Z,100453.91
2018-08-20T14:56:15.068Z,100451.12
2018-08-20T14:58:43.555Z,100453.34
2018-08-20T15:01:12.144Z,100449.53
2018-08-20T15:03:40.555Z,100447.02
2018-08-20T15:06:09.087Z,100441.89
2018-08-20T15:08:39.459Z,100442.05
2018-08-20T15:11:08.000Z,100446.16
2018-08-20T15:13:36.824Z,100443.44
2018-08-20T15:16:05.476Z,100447.03
2018-08-20T15:18:33.998Z,100443.89
2018-08-20T15:21:02.480Z,100441.33
2018-08-20T15:23:31.003Z,100439.86
2018-08-20T15:25:59.399Z,100440.53
2018-08-20T15:28:27.859Z,100439.98
2018-08-20T15:30:56.520Z,100439.25
2018-08-20T15:33:25.053Z,100434.92
2018-08-20T15:35:53.548Z,100437.64
2018-08-20T15:38:22.312Z,100438.91
2018-08-20T15:40:50.722Z,100440.63
2018-08-20T15:43:19.244Z,100444.66
2018-08-20T15:45:47.760Z,100436.98
2018-08-20T15:48:16.214Z,100435.14
2018-08-20T15:50:44.638Z,100437.02
2018-08-20T15:53:13.166Z,100433.72
2018-08-20T15:55:41.578Z,100431.13
2018-08-20T15:58:10.123Z,100430.69
2018-08-20T16:00:38.751Z,100431.97
2018-08-20T16:03:07.571Z,100432.56
2018-08-20T16:05:36.155Z,100428.25
2018-08-20T16:08:04.960Z,100426.55
2018-08-20T16:10:33.383Z,100424.19
2018-08-20T16:13:01.907Z,100422.99
2018-08-20T16:15:30.368Z,100419.60
2018-08-20T16:17:58.852Z,100417.44
2018-08-20T16:20:27.310Z,100422.13
2018-08-20T16:22:55.863Z,100419.73
2018-08-20T16:25:24.435Z,100412.58
2018-08-20T16:27:52.939Z,100413.73
2018-08-20T16:30:21.724Z,100408.05
2018-08-20T16:32:50.223Z,100408.52
2018-08-20T16:35:18.643Z,100412.44
2018-08-20T16:37:47.595Z,100414.89
2018-08-20T16:40:16.140Z,100410.59
2018-08-20T16:42:44.632Z,100413.05
2018-08-20T16:45:13.115Z,100418.67
2018-08-20T16:47:41.593Z,100409.80
2018-08-20T16:50:12.199Z,100414.19
2018-08-20T16:52:40.921Z,100411.00
2018-08-20T16:55:10.202Z,100405.76
2018-08-20T16:57:38.895Z,100409.70
2018-08-20T17:00:09.544Z,100410.66
2018-08-20T17:02:41.419Z,100408.29
2018-08-20T17:05:11.363Z,100410.30
2018-08-20T17:07:39.852Z,100406.97
2018-08-20T17:10:10.110Z,100409.15
2018-08-20T17:12:38.880Z,100408.80
2018-08-20T17:15:13.431Z,100409.13
2018-08-20T17:17:41.975Z,100401.89
2018-08-20T17:20:12.019Z,100411.69
2018-08-20T17:22:40.731Z,100418.29
2018-08-20T17:25:09.420Z,100412.12
2018-08-20T17:27:37.904Z,100408.22
2018-08-20T17:30:08.307Z,100411.29
2018-08-20T17:32:36.828Z,100417.89
2018-08-20T17:35:07.876Z,100421.81
2018-08-20T17:37:36.404Z,100419.02
2018-08-20T17:40:09.507Z,100422.70
2018-08-20T17:42:38.189Z,100422.11
2018-08-20T17:45:08.414Z,100425.14
2018-08-20T17:47:40.098Z,100422.21
2018-08-20T17:50:24.575Z,100429.54
2018-08-20T17:52:53.629Z,100427.52
2018-08-20T17:55:22.486Z,100425.50
2018-08-20T17:57:51.418Z,100434.50
2018-08-20T18:00:24.800Z,100429.14
2018-08-20T18:02:53.295Z,100431.28
2018-08-20T18:05:23.454Z,100435.73
2018-08-20T18:07:52.475Z,100431.26
2018-08-20T18:10:21.232Z,100436.42
2018-08-20T18:12:49.735Z,100431.17
2018-08-20T18:15:18.358Z,100426.93
2018-08-20T18:17:46.996Z,100435.97
2018-08-20T18:20:15.521Z,100435.84
2018-08-20T18:22:44.070Z,100445.36
2018-08-20T18:25:13.188Z,100437.70
2018-08-20T18:27:43.668Z,100439.00
2018-08-20T18:30:14.027Z,100441.70
2018-08-20T18:32:42.932Z,100447.00
2018-08-20T18:35:11.886Z,100450.27
2018-08-20T18:37:51.425Z,100448.77
2018-08-20T18:40:20.360Z,100454.61
2018-08-20T18:42:49.848Z,100451.86
2018-08-20T18:45:18.934Z,100456.77
2018-08-20T18:47:48.049Z,100466.23
2018-08-20T18:50:17.093Z,100466.02
2018-08-20T18:52:46.292Z,100461.64
2018-08-20T18:55:15.268Z,100466.82
2018-08-20T18:57:44.327Z,100468.84
2018-08-20T19:00:14.459Z,100472.64
2018-08-20T19:02:52.960Z,100481.06
2018-08-20T19:05:23.050Z,100481.66
2018-08-20T19:07:52.093Z,100487.34
2018-08-20T19:10:23.402Z,100481.44
2018-08-20T19:12:53.041Z,100481.78
2018-08-20T19:15:39.414Z,100493.73
2018-08-20T19:18:10.135Z,100493.01
2018-08-20T19:20:39.591Z,100508.23
2018-08-20T19:23:09.194Z,100505.50
2018-08-20T19:25:38.349Z,100505.14
2018-08-20T19:28:12.530Z,100504.38
2018-08-20T19:30:41.632Z,100507.35
2018-08-20T19:33:16.502Z,100502.55
2018-08-20T19:35:45.866Z,100504.14
2018-08-20T19:38:15.026Z,100511.31
2018-08-20T19:40:44.092Z,100515.63
2018-08-20T19:43:13.219Z,100516.76
2018-08-20T19:45:45.033Z,100519.45
2018-08-20T19:48:15.159Z,100519.94
2018-08-20T19:50:44.178Z,100522.67
2018-08-20T19:53:18.180Z,100525.31
2018-08-20T19:55:47.297Z,100528.59
2018-08-20T19:58:36.399Z,100530.55
2018-08-20T20:01:14.936Z,100534.32
2018-08-20T20:03:47.205Z,100531.67
2018-08-20T20:06:16.567Z,100535.92
2018-08-20T20:08:45.806Z,100533.92
2018-08-20T20:11:22.886Z,100538.94
2018-08-20T20:16:54.372Z,100539.38
2018-08-20T20:19:23.498Z,100541.77
2018-08-20T20:21:52.430Z,100536.49
2018-08-20T20:24:21.413Z,100536.73
2018-08-20T20:26:50.893Z,100544.47
2018-08-20T20:29:20.829Z,100543.28
2018-08-20T20:31:49.832Z,100546.38
2018-08-20T20:34:19.110Z,100540.12
2018-08-20T20:36:47.912Z,100545.64
2018-08-20T20:39:16.433Z,100549.99
2018-08-20T20:41:45.020Z,100549.92
2018-08-20T20:44:13.651Z,100552.88
2018-08-20T20:46:42.172Z,100554.73
2018-08-20T20:49:10.823Z,100553.51
2018-08-20T20:51:39.280Z,100556.84
2018-08-20T20:54:07.847Z,100558.63
2018-08-20T20:56:36.358Z,100563.66
2018-08-20T20:59:04.820Z,100571.02
2018-08-20T21:01:33.390Z,100568.73
2018-08-20T21:04:05.096Z,100574.22
2018-08-20T21:06:36.845Z,100579.34
2018-08-20T21:09:11.283Z,100574.16
2018-08-20T21:11:39.813Z,100577.38
2018-08-20T21:14:08.450Z,100567.00
2018-08-20T21:16:37.115Z,100569.66
2018-08-20T21:19:06.192Z,100578.69
2018-08-20T21:21:34.779Z,100572.40
2018-08-20T21:24:06.590Z,100570.98
2018-08-20T21:26:35.144Z,100572.44
2018-08-20T21:29:03.663Z,100576.69
2018-08-20T21:31:37.655Z,100577.41
2018-08-20T21:34:06.167Z,100582.66
2018-08-20T21:36:34.649Z,100584.11
2018-08-20T21:39:03.881Z,100579.27
2018-08-20T21:41:32.319Z,100578.67
2018-08-20T21:44:01.155Z,100582.91
2018-08-20T21:46:29.819Z,100593.88
2018-08-20T21:48:58.227Z,100594.11
2018-08-20T21:51:33.752Z,100595.06
2018-08-20T21:54:02.265Z,100594.34
2018-08-20T21:56:42.197Z,100594.17
2018-08-20T21:59:10.723Z,100599.70
2018-08-20T22:01:39.227Z,100601.08
2018-08-20T22:04:13.119Z,100602.18
2018-08-20T22:06:41.664Z,100602.98
2018-08-20T22:09:10.091Z,100609.08
2018-08-20T22:11:38.572Z,100616.56
2018-08-20T22:14:07.140Z,100616.31
2018-08-20T22:16:35.607Z,100611.60
2018-08-20T22:19:04.171Z,100611.52
2018-08-20T22:21:32.623Z,100609.38
2018-08-20T22:24:02.442Z,100609.37
2018-08-20T22:26:30.982Z,100612.61
2018-08-20T22:28:59.962Z,100616.64
2018-08-20T22:31:28.751Z,100612.68
2018-08-20T22:34:02.511Z,100606.48
2018-08-20T22:36:32.104Z,100611.60
2018-08-20T22:39:01.640Z,100617.13
2018-08-20T22:41:31.076Z,100621.89
2018-08-20T22:44:06.225Z,100610.56
2018-08-20T22:46:34.747Z,100617.22
2018-08-20T22:49:03.139Z,100619.30
2018-08-20T22:51:31.631Z,100624.06
2018-08-20T22:54:01.463Z,100626.55
2018-08-20T22:56:31.335Z,100624.25
2018-08-20T22:59:06.433Z,100622.85
2018-08-20T23:01:34.946Z,100627.03
2018-08-20T23:04:03.568Z,100629.45
2018-08-20T23:06:31.986Z,100624.67
2018-08-20T23:09:09.242Z,100628.91
2018-08-20T23:11:42.275Z,100632.76
2018-08-20T23:14:13.011Z,100632.39
2018-08-20T23:16:41.791Z,100637.28
2018-08-20T23:19:10.813Z,100625.72
2018-08-20T23:21:41.275Z,100634.34
2018-08-20T23:24:10.635Z,100637.11
2018-08-20T23:26:39.336Z,100637.27
2018-08-20T23:29:08.087Z,100633.66
2018-08-20T23:31:36.739Z,100641.17
2018-08-20T23:34:09.567Z,100646.25
2018-08-20T23:36:38.371Z,100636.94
2018-08-20T23:39:11.447Z,100638.17
2018-08-20T23:41:40.223Z,100638.88
2018-08-20T23:44:09.133Z,100641.11
2018-08-20T23:46:43.812Z,100640.82
2018-08-20T23:49:12.392Z,100636.13
2018-08-20T23:51:40.983Z,100638.94
2018-08-20T23:54:10.671Z,100636.87
2018-08-20T23:56:39.134Z,100633.56
2018-08-20T23:59:12.236Z,100644.58
